Aeroporto :
LOGIN :

Iscrizione | Disclaimer

   EN    FR    IT 

 










Sommario :    VFR   VFR Marginale   IFR   IFR Intensivo   IFR Molto Intensivo
Visibilità : 
Base nubi : 
>= 8 km
>= 3000ft
5 / 8 km
1000 / 3000 ft
1500m / 5 km
500 / 1000 ft
800 / 1500m
200 / 500 ft
< 800m
< 200 ft
Simboli :   Temporali  Nebbia  Neve Forte  Precipitazioni Forti  Vento > 20 kt
SIGMETs :   Varie  Temporali  Ghiacco  Turbolenza  Onda orograficha  Ceneri Vulcaniche






- Altitudine del aeroporto : 963 ft
- Codice IATA : TGM


LRTM - Transilvania Târgu Mureş Int.

ULTIMO METAR :
  • 270500Z AUTO 07001KT 3000 BR VV001 M02/M03 Q1018

METARs OBSOLETI :
  • 270430Z AUTO 00000KT 2800 BR VV002 M02/M03 Q1018
  • 270400Z AUTO 01002KT 320V120 2500 BR SCT001/// M02/M03 Q1018
  • 270330Z AUTO 09004KT 3000 BR FEW001/// BKN055/// M02/M03 Q1018
  • 270300Z AUTO 12004KT 3400 BR FEW001/// SCT060/// M01/M02 Q1019
  • 270230Z AUTO 10006KT 2900 BR FEW000/// M02/M03 Q1019

Previsioni scadute.



MetMap, La meteo Aeronautica in un colpo d'occhio ! - Copyright ORBIFLY Dicembre 2007 - Disclaimer

ORBIFLY MET'MAP TEAM :

Programmazione e sviluppo : Alexandra Zaïnal
Concezione : Baudouin d'Aumeries
Aiuto per la programmazione : Marc-Olivier Méhu
Supporto tecnico e logistico : Manuel Goepfert
Aiuto per la traduzione : Arnaldo La Scala

Contatto : metmap@orbifly.com




FONTI E CREDITI :

   NOAA